Time;durP1;ratioP1;P1;durP2;ratioP2;P2;SDS_P1;SDS_P2;PMS_P1;PMS_P2;Temp;Humidity;BMP_temperature;BMP_pressure;BME280_temperature;BME280_humidity;BME280_pressure;Samples;Min_cycle;Max_cycle;Signal;HPM_P1;HPM_P2
2023/12/04 00:00:21;;;;;;;9.60;3.28;;;-2.90;1.00;;;;;;5134797;27;20421;-51
2023/12/04 00:02:50;;;;;;;6.72;3.90;;;-2.90;1.00;;;;;;5135166;27;20410;-53
2023/12/04 00:05:17;;;;;;;7.85;4.28;;;-2.90;1.00;;;;;;5135917;27;20476;-52
2023/12/04 00:07:44;;;;;;;7.50;4.25;;;-2.90;1.00;;;;;;5135210;27;20422;-49
2023/12/04 00:10:11;;;;;;;9.05;4.20;;;-2.90;1.00;;;;;;5135023;27;20719;-54
2023/12/04 00:12:38;;;;;;;9.83;3.83;;;-2.90;1.00;;;;;;5135401;27;20876;-50
2023/12/04 00:15:06;;;;;;;8.60;4.03;;;-3.00;1.00;;;;;;5135696;27;20817;-50
2023/12/04 00:17:33;;;;;;;8.63;3.75;;;-2.90;1.00;;;;;;5135318;27;20821;-52
2023/12/04 00:20:02;;;;;;;10.95;4.90;;;-2.90;1.00;;;;;;5134520;27;20726;-54
2023/12/04 00:22:29;;;;;;;9.55;3.85;;;-2.90;1.00;;;;;;5135277;27;20433;-54
2023/12/04 00:24:56;;;;;;;8.85;3.85;;;-2.90;1.00;;;;;;5135051;27;20484;-54
2023/12/04 00:27:26;;;;;;;8.98;4.55;;;-2.90;1.00;;;;;;5133190;27;20426;-52
2023/12/04 00:29:53;;;;;;;8.10;4.43;;;-3.00;1.00;;;;;;5134447;28;20418;-51
2023/12/04 00:32:20;;;;;;;8.60;4.03;;;-3.00;1.00;;;;;;5134151;28;20406;-55
2023/12/04 00:34:47;;;;;;;9.07;4.00;;;-3.10;1.00;;;;;;5135059;28;20422;-54
2023/12/04 00:37:16;;;;;;;8.23;3.95;;;-3.10;1.00;;;;;;5135295;28;20418;-53
2023/12/04 00:39:43;;;;;;;7.32;3.58;;;-3.10;1.00;;;;;;5133653;28;20425;-52
2023/12/04 00:42:10;;;;;;;9.97;3.90;;;-3.20;1.00;;;;;;5134426;28;20421;-52
2023/12/04 00:44:37;;;;;;;6.32;3.22;;;-3.20;1.00;;;;;;5134047;28;20417;-51
2023/12/04 00:47:04;;;;;;;5.97;3.00;;;-3.20;1.00;;;;;;5134219;28;20445;-52
2023/12/04 00:49:31;;;;;;;7.37;3.30;;;-3.20;1.00;;;;;;5134583;28;20425;-51
2023/12/04 00:51:58;;;;;;;4.70;3.95;;;-3.20;1.00;;;;;;5134611;28;20422;-52
2023/12/04 00:54:27;;;;;;;8.27;3.92;;;-3.10;1.00;;;;;;5134163;28;20430;-54
2023/12/04 00:56:54;;;;;;;6.73;3.27;;;-3.00;1.00;;;;;;5134469;28;20425;-51
2023/12/04 00:59:21;;;;;;;6.38;3.35;;;-3.00;1.00;;;;;;5134854;28;20437;-54
2023/12/04 01:01:48;;;;;;;8.00;3.30;;;-2.90;1.00;;;;;;5134720;28;20433;-52
2023/12/04 01:04:15;;;;;;;7.25;3.40;;;-2.90;1.00;;;;;;5134874;28;20415;-51
2023/12/04 01:06:42;;;;;;;5.40;2.80;;;-3.00;1.00;;;;;;5134975;28;20419;-52
2023/12/04 01:09:09;;;;;;;7.13;3.40;;;-3.10;1.00;;;;;;5134154;28;20597;-52
2023/12/04 01:11:38;;;;;;;7.88;3.45;;;-3.10;1.00;;;;;;5133847;28;20446;-51
2023/12/04 01:14:05;;;;;;;7.53;3.67;;;-3.10;1.00;;;;;;5134551;27;20426;-49
2023/12/04 01:16:33;;;;;;;7.55;2.92;;;-3.10;1.00;;;;;;5137786;27;20415;-49
2023/12/04 01:19:00;;;;;;;7.13;2.90;;;-3.10;1.00;;;;;;5137843;27;20460;-54
2023/12/04 01:21:27;;;;;;;7.43;2.95;;;-3.20;1.00;;;;;;5138060;27;20423;-52
2023/12/04 01:23:54;;;;;;;6.97;3.40;;;-3.20;1.00;;;;;;5137915;27;20426;-50
2023/12/04 01:26:21;;;;;;;7.70;3.90;;;-3.10;1.00;;;;;;5138562;27;20421;-53
2023/12/04 01:28:49;;;;;;;5.85;2.60;;;-3.10;1.00;;;;;;5137959;27;20449;-52
2023/12/04 01:31:17;;;;;;;5.93;3.65;;;-3.10;1.00;;;;;;5138650;27;20868;-53
2023/12/04 01:33:44;;;;;;;6.25;2.85;;;-3.10;1.00;;;;;;5138364;27;20741;-54
2023/12/04 01:36:11;;;;;;;7.38;3.08;;;-3.10;1.00;;;;;;5138819;27;20821;-54
2023/12/04 01:38:39;;;;;;;8.70;3.00;;;-3.20;1.00;;;;;;5137840;27;20418;-54
2023/12/04 01:41:07;;;;;;;6.70;3.20;;;-3.20;1.00;;;;;;5138215;27;20406;-52
2023/12/04 01:43:34;;;;;;;8.30;3.33;;;-3.30;1.00;;;;;;5137808;27;20427;-54
2023/12/04 01:46:03;;;;;;;6.28;3.58;;;-3.40;1.00;;;;;;5137941;27;20510;-48
2023/12/04 01:48:31;;;;;;;6.75;2.88;;;-3.40;1.00;;;;;;5138212;27;20418;-53
2023/12/04 01:50:59;;;;;;;8.20;3.58;;;-3.40;1.00;;;;;;5137608;27;20415;-54
2023/12/04 01:53:26;;;;;;;7.55;3.40;;;-3.40;1.00;;;;;;5137208;27;20426;-49
2023/12/04 01:55:54;;;;;;;8.33;3.37;;;-3.50;1.00;;;;;;5137806;27;20834;-50
2023/12/04 01:58:22;;;;;;;7.20;2.97;;;-3.40;1.00;;;;;;5137880;27;20419;-51
2023/12/04 02:00:49;;;;;;;6.50;2.87;;;-3.40;1.00;;;;;;5137864;27;20516;-49
2023/12/04 02:03:18;;;;;;;7.70;3.05;;;-3.40;1.00;;;;;;5137626;27;20425;-55
2023/12/04 02:05:45;;;;;;;6.65;2.65;;;-3.30;1.00;;;;;;5137117;27;20446;-54
2023/12/04 02:08:13;;;;;;;5.63;2.47;;;-3.20;1.00;;;;;;5135885;27;20866;-52
2023/12/04 02:10:40;;;;;;;6.03;2.78;;;-3.20;1.00;;;;;;5134346;27;20745;-49
2023/12/04 02:13:07;;;;;;;6.07;2.45;;;-3.20;1.00;;;;;;5134037;27;20460;-51
2023/12/04 02:15:34;;;;;;;6.25;2.40;;;-3.10;1.00;;;;;;5133687;27;20932;-51
2023/12/04 02:18:03;;;;;;;6.35;2.47;;;-3.10;1.00;;;;;;5133748;27;20570;-49
2023/12/04 02:20:35;;;;;;;7.03;2.47;;;-3.00;1.00;;;;;;5134247;27;20867;-48
2023/12/04 02:23:02;;;;;;;8.40;2.90;;;-2.90;1.00;;;;;;5136811;27;20406;-50
2023/12/04 02:25:31;;;;;;;7.60;2.42;;;-2.80;1.00;;;;;;5137542;27;20435;-51
2023/12/04 02:28:02;;;;;;;8.25;2.45;;;-2.90;1.00;;;;;;5137380;27;20414;-53
2023/12/04 02:30:31;;;;;;;6.50;3.65;;;-3.00;1.00;;;;;;5137391;27;20801;-52
2023/12/04 02:33:00;;;;;;;6.20;2.70;;;-3.10;1.00;;;;;;5137733;27;20840;-51
2023/12/04 02:35:29;;;;;;;7.53;2.90;;;-3.10;1.00;;;;;;5137426;27;20841;-53
2023/12/04 02:37:58;;;;;;;5.57;2.53;;;-3.10;1.00;;;;;;5137695;27;20748;-52
2023/12/04 02:40:26;;;;;;;7.47;2.67;;;-3.10;1.00;;;;;;5137557;27;20445;-53
2023/12/04 02:42:55;;;;;;;6.80;3.00;;;-3.10;1.00;;;;;;5137589;27;20834;-55
2023/12/04 02:45:22;;;;;;;4.38;2.42;;;-3.10;1.00;;;;;;5136837;27;20415;-55
2023/12/04 02:47:49;;;;;;;6.25;2.90;;;-3.00;1.00;;;;;;5136182;27;20419;-55
2023/12/04 02:50:16;;;;;;;7.50;2.80;;;-3.00;1.00;;;;;;5136544;27;20424;-49
2023/12/04 02:52:43;;;;;;;5.60;2.90;;;-2.90;1.00;;;;;;5137447;27;20422;-54
2023/12/04 02:55:10;;;;;;;6.88;3.63;;;-3.00;1.00;;;;;;5137207;27;20434;-52
2023/12/04 02:57:37;;;;;;;7.80;3.35;;;-3.10;1.00;;;;;;5137174;27;20425;-54
2023/12/04 03:00:07;;;;;;;7.95;3.58;;;-3.20;1.00;;;;;;5135712;27;20423;-53
2023/12/04 03:02:34;;;;;;;8.17;3.97;;;-3.30;1.00;;;;;;5135537;27;20410;-54
2023/12/04 03:05:01;;;;;;;11.10;3.60;;;-3.40;1.00;;;;;;5135273;27;20866;-50
2023/12/04 03:07:28;;;;;;;8.27;2.78;;;-3.40;1.00;;;;;;5134620;27;20430;-49
2023/12/04 03:09:56;;;;;;;7.20;3.28;;;-3.50;1.00;;;;;;5134207;27;20887;-53
2023/12/04 03:12:23;;;;;;;8.52;3.45;;;-3.50;1.00;;;;;;5134830;27;20833;-53
2023/12/04 03:14:50;;;;;;;7.53;3.33;;;-3.50;1.00;;;;;;5135196;27;20467;-53
2023/12/04 03:17:18;;;;;;;7.95;4.20;;;-3.50;1.00;;;;;;5135561;27;20829;-53
2023/12/04 03:19:46;;;;;;;8.57;3.70;;;-3.60;1.00;;;;;;5135848;27;20426;-50
2023/12/04 03:22:14;;;;;;;6.80;2.75;;;-3.50;1.00;;;;;;5136585;27;20418;-54
2023/12/04 03:24:41;;;;;;;5.57;3.03;;;-3.50;1.00;;;;;;5135197;27;20415;-50
2023/12/04 03:27:08;;;;;;;6.00;2.28;;;-3.50;1.00;;;;;;5135877;27;20425;-48
2023/12/04 03:29:35;;;;;;;5.60;2.90;;;-3.40;1.00;;;;;;5136195;27;20414;-53
2023/12/04 03:32:02;;;;;;;7.22;3.20;;;-3.40;1.00;;;;;;5135786;27;20421;-49
2023/12/04 03:34:30;;;;;;;4.68;2.80;;;-3.30;1.00;;;;;;5135176;27;20844;-49
2023/12/04 03:36:57;;;;;;;6.00;2.55;;;-3.20;1.00;;;;;;5136265;27;20414;-52
2023/12/04 03:39:24;;;;;;;5.72;2.75;;;-3.20;1.00;;;;;;5134861;27;20418;-53
2023/12/04 03:41:51;;;;;;;6.55;2.50;;;-3.20;1.00;;;;;;5134431;27;20809;-53
2023/12/04 03:44:18;;;;;;;5.63;2.55;;;-3.20;1.00;;;;;;5134390;27;20414;-53
2023/12/04 03:46:45;;;;;;;8.55;2.80;;;-3.20;1.00;;;;;;5134842;27;20853;-49
2023/12/04 03:49:12;;;;;;;6.15;2.90;;;-3.30;1.00;;;;;;5134262;27;20423;-52
2023/12/04 03:51:41;;;;;;;6.70;2.60;;;-3.30;1.00;;;;;;5135432;27;20449;-51
2023/12/04 03:54:08;;;;;;;6.13;2.60;;;-3.30;1.00;;;;;;5136067;27;20837;-51
2023/12/04 03:56:35;;;;;;;8.63;3.33;;;-3.30;1.00;;;;;;5135207;27;20418;-53
2023/12/04 03:59:02;;;;;;;6.43;2.90;;;-3.40;1.00;;;;;;5135328;27;20415;-51
2023/12/04 04:01:29;;;;;;;5.63;2.53;;;-3.40;1.00;;;;;;5135446;27;20422;-53
2023/12/04 04:03:57;;;;;;;5.63;2.87;;;-3.30;1.00;;;;;;5134576;27;20422;-48
2023/12/04 04:06:24;;;;;;;5.97;2.67;;;-3.30;1.00;;;;;;5133437;27;20418;-49
2023/12/04 04:08:53;;;;;;;5.57;2.60;;;-3.40;1.00;;;;;;5134001;27;20418;-48
2023/12/04 04:11:20;;;;;;;5.93;2.43;;;-3.30;1.00;;;;;;5135101;27;20475;-48
2023/12/04 04:13:47;;;;;;;6.88;3.10;;;-3.30;1.00;;;;;;5134861;27;20427;-49
2023/12/04 04:16:16;;;;;;;5.22;2.65;;;-3.30;1.00;;;;;;5134856;27;20683;-49
2023/12/04 04:18:43;;;;;;;6.13;2.50;;;-3.30;1.00;;;;;;5134647;27;20418;-48
2023/12/04 04:21:10;;;;;;;5.88;3.08;;;-3.30;1.00;;;;;;5135476;27;20762;-51
2023/12/04 04:23:38;;;;;;;6.55;1.98;;;-3.30;1.00;;;;;;5135555;27;20406;-54
2023/12/04 04:26:07;;;;;;;8.25;3.13;;;-3.30;1.00;;;;;;5134324;27;20406;-50
2023/12/04 04:28:34;;;;;;;8.27;3.38;;;-3.30;1.00;;;;;;5134519;28;20421;-51
2023/12/04 04:31:01;;;;;;;8.02;3.35;;;-3.30;1.00;;;;;;5135426;28;20426;-53
2023/12/04 04:33:28;;;;;;;7.50;2.90;;;-3.20;1.00;;;;;;5134591;28;20418;-52
2023/12/04 04:35:55;;;;;;;5.88;2.67;;;-3.20;1.00;;;;;;5135056;28;20686;-51
2023/12/04 04:38:22;;;;;;;7.55;2.78;;;-3.20;1.00;;;;;;5135087;28;20415;-52
2023/12/04 04:40:49;;;;;;;6.78;2.50;;;-3.20;1.00;;;;;;5134702;28;20433;-52
2023/12/04 04:43:18;;;;;;;6.30;2.40;;;-3.30;1.00;;;;;;5133403;28;20418;-51
2023/12/04 04:45:45;;;;;;;5.32;2.17;;;-3.40;1.00;;;;;;5133828;28;20694;-51
2023/12/04 04:48:12;;;;;;;6.90;3.03;;;-3.30;1.00;;;;;;5135465;28;20501;-48
2023/12/04 04:50:39;;;;;;;6.32;3.00;;;-3.30;1.00;;;;;;5137345;27;20425;-55
2023/12/04 04:53:06;;;;;;;6.35;3.05;;;-3.30;1.00;;;;;;5138777;27;20410;-49
2023/12/04 04:55:33;;;;;;;5.85;2.95;;;-3.30;1.00;;;;;;5138355;27;20442;-49
2023/12/04 04:58:00;;;;;;;5.00;2.17;;;-3.30;1.00;;;;;;5138629;27;20457;-52
2023/12/04 05:00:29;;;;;;;4.60;2.30;;;-3.40;1.00;;;;;;5138731;27;20418;-51
2023/12/04 05:02:56;;;;;;;6.80;2.88;;;-3.30;1.00;;;;;;5138304;27;20418;-54
2023/12/04 05:05:23;;;;;;;5.25;2.80;;;-3.30;1.00;;;;;;5137345;27;20723;-53
2023/12/04 05:07:50;;;;;;;6.82;2.80;;;-3.20;1.00;;;;;;5137145;27;20418;-53
2023/12/04 05:10:17;;;;;;;8.50;2.90;;;-3.20;1.00;;;;;;5137414;27;20422;-50
2023/12/04 05:12:44;;;;;;;6.55;2.80;;;-3.20;1.00;;;;;;5138027;27;20859;-52
2023/12/04 05:15:11;;;;;;;3.83;2.25;;;-3.20;1.00;;;;;;5137304;27;20442;-49
2023/12/04 05:17:39;;;;;;;5.20;2.35;;;-3.20;1.00;;;;;;5137591;27;20417;-50
2023/12/04 05:20:09;;;;;;;4.82;2.22;;;-3.20;1.00;;;;;;5137735;27;20418;-53
2023/12/04 05:22:36;;;;;;;5.50;2.50;;;-3.10;1.00;;;;;;5137448;27;20455;-50
2023/12/04 05:25:04;;;;;;;4.23;2.10;;;-3.10;1.00;;;;;;5137049;27;20414;-50
2023/12/04 05:27:31;;;;;;;5.10;2.00;;;-3.10;1.00;;;;;;5138018;27;20414;-49
2023/12/04 05:29:58;;;;;;;8.20;2.45;;;-3.00;1.00;;;;;;5138029;27;20419;-54
2023/12/04 05:32:25;;;;;;;7.90;3.17;;;-3.00;1.00;;;;;;5138357;27;20756;-53
2023/12/04 05:34:53;;;;;;;5.85;2.30;;;-2.90;1.00;;;;;;5137255;27;20453;-52
2023/12/04 05:37:20;;;;;;;7.27;2.50;;;-2.90;1.00;;;;;;5137082;27;20437;-50
2023/12/04 05:39:47;;;;;;;5.18;2.15;;;-2.90;1.00;;;;;;5137015;27;20423;-54
2023/12/04 05:42:14;;;;;;;6.10;2.45;;;-2.90;1.00;;;;;;5138040;27;20414;-48
2023/12/04 05:44:41;;;;;;;5.97;2.20;;;-2.80;1.00;;;;;;5138149;27;20829;-50
2023/12/04 05:47:09;;;;;;;5.38;2.08;;;-2.80;1.00;;;;;;5136433;27;20410;-51
2023/12/04 05:49:36;;;;;;;4.97;1.85;;;-2.70;99.90;;;;;;5136752;27;20480;-51
2023/12/04 05:52:05;;;;;;;4.30;2.10;;;-2.70;99.90;;;;;;5135953;27;20423;-53
2023/12/04 05:54:32;;;;;;;4.63;1.90;;;-2.80;99.90;;;;;;5136352;27;20437;-52
2023/12/04 05:56:59;;;;;;;3.47;1.70;;;-2.90;99.90;;;;;;5135296;27;20419;-55
2023/12/04 05:59:26;;;;;;;2.85;1.50;;;-2.80;99.90;;;;;;5136278;27;20406;-50
2023/12/04 06:01:53;;;;;;;5.40;1.90;;;-2.70;99.90;;;;;;5135804;27;20859;-51
2023/12/04 06:04:21;;;;;;;4.20;1.90;;;-2.70;99.90;;;;;;5136394;27;20425;-52
2023/12/04 06:06:48;;;;;;;4.40;1.73;;;-2.70;99.90;;;;;;5135500;27;20422;-51
2023/12/04 06:09:16;;;;;;;5.00;2.00;;;-2.70;99.90;;;;;;5134926;27;20419;-52
2023/12/04 06:11:43;;;;;;;6.00;2.03;;;-2.70;83.50;;;;;;5135078;27;20469;-53
2023/12/04 06:14:10;;;;;;;6.95;2.40;;;-2.60;99.90;;;;;;5134816;27;20426;-51
2023/12/04 06:16:38;;;;;;;4.80;1.40;;;-2.60;1.00;;;;;;5136318;27;20785;-51
2023/12/04 06:19:05;;;;;;;3.60;1.53;;;-2.70;1.00;;;;;;5118333;27;20963;-53
2023/12/04 06:21:32;;;;;;;4.32;2.00;;;-2.70;1.00;;;;;;5137125;27;20825;-52
2023/12/04 06:24:00;;;;;;;5.07;2.40;;;-2.80;67.30;;;;;;5135990;27;20833;-51
2023/12/04 06:26:30;;;;;;;4.05;1.90;;;-2.80;99.90;;;;;;5136425;27;20410;-53
2023/12/04 06:28:57;;;;;;;5.60;2.50;;;-2.90;99.90;;;;;;5134453;27;20422;-53
2023/12/04 06:31:25;;;;;;;5.13;1.50;;;-3.00;99.90;;;;;;5134286;27;20422;-51
2023/12/04 06:33:53;;;;;;;4.80;1.93;;;-3.00;99.90;;;;;;5134449;27;20423;-55
2023/12/04 06:36:21;;;;;;;6.43;1.80;;;-3.00;1.00;;;;;;5132897;27;20438;-50
2023/12/04 06:38:51;;;;;;;5.47;2.00;;;-3.00;1.00;;;;;;5134119;27;20429;-54
2023/12/04 06:41:21;;;;;;;6.07;2.50;;;-3.00;1.00;;;;;;5134033;27;20406;-53
2023/12/04 06:43:50;;;;;;;5.15;2.00;;;-3.00;1.00;;;;;;5131035;27;20664;-50
2023/12/04 06:46:20;;;;;;;4.13;2.20;;;-2.90;1.00;;;;;;5131687;27;20410;-54
2023/12/04 06:48:49;;;;;;;4.65;1.88;;;-2.90;1.00;;;;;;5133287;27;20426;-54
2023/12/04 06:51:16;;;;;;;6.35;2.30;;;-2.90;1.00;;;;;;5133820;27;20426;-49
2023/12/04 06:53:43;;;;;;;4.00;1.75;;;-2.80;1.00;;;;;;5133932;27;20411;-50
2023/12/04 06:56:11;;;;;;;5.57;2.22;;;-2.90;1.00;;;;;;5134841;27;20430;-54
2023/12/04 06:58:38;;;;;;;4.43;2.50;;;-2.80;1.00;;;;;;5135368;27;20424;-53
2023/12/04 07:01:07;;;;;;;4.63;2.00;;;-2.70;1.00;;;;;;5134723;27;20433;-52
2023/12/04 07:03:34;;;;;;;7.13;2.53;;;-2.30;1.00;;;;;;5132441;27;20753;-52
2023/12/04 07:06:01;;;;;;;3.72;1.80;;;-2.30;1.00;;;;;;5136126;27;20419;-50
2023/12/04 07:08:28;;;;;;;5.25;1.95;;;-2.30;99.90;;;;;;5136917;27;20414;-49
2023/12/04 07:10:55;;;;;;;4.28;1.98;;;-2.20;99.90;;;;;;5135261;27;20829;-51
2023/12/04 07:13:22;;;;;;;5.25;1.90;;;-2.10;99.90;;;;;;5133028;27;20410;-51
2023/12/04 07:15:49;;;;;;;5.45;2.28;;;-2.00;99.90;;;;;;5135359;27;20430;-54
2023/12/04 07:18:18;;;;;;;4.30;2.20;;;-2.00;1.00;;;;;;5134573;27;20422;-55
2023/12/04 07:20:45;;;;;;;3.65;1.70;;;-2.10;99.90;;;;;;5134636;27;20423;-53
2023/12/04 07:23:12;;;;;;;5.47;2.33;;;-2.20;99.90;;;;;;5126751;27;20410;-53
2023/12/04 07:25:39;;;;;;;4.40;2.10;;;-2.30;1.00;;;;;;5133067;27;20425;-52
2023/12/04 07:28:06;;;;;;;6.75;2.13;;;-2.40;1.00;;;;;;5124663;27;20446;-53
2023/12/04 07:30:33;;;;;;;4.30;2.20;;;-2.40;1.00;;;;;;5106018;27;20428;-51
2023/12/04 07:33:00;;;;;;;5.10;2.10;;;-2.30;1.00;;;;;;5122441;27;20426;-54
2023/12/04 07:35:28;;;;;;;5.10;2.05;;;-2.20;99.90;;;;;;5122414;27;20437;-53
2023/12/04 07:37:55;;;;;;;5.40;2.10;;;-2.20;1.00;;;;;;5118752;27;20508;-53
2023/12/04 07:40:23;;;;;;;3.35;1.92;;;-2.30;1.00;;;;;;5123311;27;20727;-55
2023/12/04 07:42:50;;;;;;;4.80;2.00;;;-2.30;1.00;;;;;;5113012;28;20504;-51
2023/12/04 07:45:17;;;;;;;6.28;2.70;;;-2.30;1.00;;;;;;5109919;28;20475;-53
2023/12/04 07:47:44;;;;;;;6.10;2.60;;;-2.30;1.00;;;;;;5112278;27;20428;-52
2023/12/04 07:50:12;;;;;;;7.05;2.53;;;-2.30;1.00;;;;;;5112621;28;20752;-52
2023/12/04 07:52:40;;;;;;;5.28;2.20;;;-2.40;1.00;;;;;;5110434;28;20440;-55
2023/12/04 07:55:08;;;;;;;5.53;2.40;;;-2.40;6.00;;;;;;5113225;28;20890;-51
2023/12/04 07:57:35;;;;;;;6.57;3.10;;;-2.30;52.80;;;;;;5120044;27;20430;-53
2023/12/04 08:00:02;;;;;;;5.53;2.30;;;-2.30;19.30;;;;;;5134606;27;20445;-52
2023/12/04 08:02:29;;;;;;;5.13;1.80;;;-2.30;1.00;;;;;;5117868;27;20432;-54
2023/12/04 08:04:56;;;;;;;6.03;2.28;;;-2.30;1.00;;;;;;5112170;28;20416;-52
2023/12/04 08:07:23;;;;;;;5.43;2.50;;;-2.20;1.00;;;;;;5112644;28;20440;-54
2023/12/04 08:09:53;;;;;;;5.32;2.20;;;-2.30;26.40;;;;;;5112993;28;20428;-54
2023/12/04 08:12:20;;;;;;;5.90;1.80;;;-2.20;99.90;;;;;;5111886;28;20869;-52
2023/12/04 08:14:47;;;;;;;4.63;1.95;;;-2.20;99.90;;;;;;5112100;28;20412;-55
2023/12/04 08:17:14;;;;;;;6.80;3.25;;;-2.10;1.00;;;;;;5112049;28;20432;-53
2023/12/04 08:19:41;;;;;;;5.50;2.50;;;-2.00;97.70;;;;;;5112390;28;20577;-55
2023/12/04 08:22:09;;;;;;;5.93;2.95;;;-1.90;99.90;;;;;;5111935;28;20436;-51
2023/12/04 08:24:36;;;;;;;4.93;2.33;;;-2.00;1.00;;;;;;5101890;28;20759;-53
2023/12/04 08:27:05;;;;;;;6.32;2.50;;;-2.10;1.00;;;;;;5111789;28;20724;-52
2023/12/04 08:29:32;;;;;;;5.50;2.90;;;-2.10;99.90;;;;;;5109569;28;20433;-54
2023/12/04 08:31:59;;;;;;;4.57;2.83;;;-2.10;1.00;;;;;;5119423;28;20513;-52
2023/12/04 08:34:26;;;;;;;6.30;2.50;;;-2.10;1.00;;;;;;5120878;28;20457;-55
2023/12/04 08:36:53;;;;;;;5.60;2.40;;;-2.10;1.00;;;;;;5129641;28;20434;-54
2023/12/04 08:39:22;;;;;;;5.22;2.00;;;-2.10;1.00;;;;;;5112712;28;20827;-56
2023/12/04 08:41:49;;;;;;;4.28;1.67;;;-2.10;99.90;;;;;;5112397;28;20641;-55
2023/12/04 08:44:17;;;;;;;4.00;1.80;;;-2.10;99.90;;;;;;5110398;28;20446;-54
2023/12/04 08:46:45;;;;;;;4.50;1.70;;;-1.90;1.00;;;;;;5109873;28;20744;-56
2023/12/04 08:49:12;;;;;;;5.68;2.28;;;-1.70;1.00;;;;;;5110064;28;20917;-56
2023/12/04 08:51:40;;;;;;;4.63;2.00;;;-1.70;1.00;;;;;;5110587;28;20460;-54
2023/12/04 08:54:08;;;;;;;4.65;2.20;;;-1.60;1.00;;;;;;5109567;28;20431;-55
2023/12/04 08:56:35;;;;;;;6.32;1.85;;;-1.70;99.90;;;;;;5109256;28;20436;-55
2023/12/04 08:59:02;;;;;;;5.55;1.85;;;-1.80;99.90;;;;;;5108002;28;20592;-57
2023/12/04 09:01:30;;;;;;;3.38;1.80;;;-1.70;99.90;;;;;;5113157;28;20536;-55
2023/12/04 09:03:57;;;;;;;3.72;1.77;;;-1.70;99.90;;;;;;5110519;28;20431;-55
2023/12/04 09:06:25;;;;;;;4.03;2.00;;;-1.70;99.90;;;;;;5112004;28;20849;-53
2023/12/04 09:08:52;;;;;;;4.78;1.83;;;-1.70;99.90;;;;;;5114436;28;20442;-54
2023/12/04 09:11:19;;;;;;;6.00;2.20;;;-1.70;99.90;;;;;;5114552;28;20516;-50
2023/12/04 09:13:46;;;;;;;6.70;1.95;;;-1.60;1.00;;;;;;5111969;28;20440;-54
2023/12/04 09:16:14;;;;;;;4.93;2.25;;;-1.60;1.00;;;;;;5096429;28;20429;-54
2023/12/04 09:18:42;;;;;;;7.60;2.20;;;-1.60;1.00;;;;;;5091310;28;20453;-55
2023/12/04 09:21:09;;;;;;;6.30;2.20;;;-1.60;1.00;;;;;;5092849;28;20808;-50
2023/12/04 09:23:37;;;;;;;4.93;1.90;;;-1.50;6.40;;;;;;5092574;28;20417;-49
2023/12/04 09:26:04;;;;;;;5.70;1.77;;;-1.30;1.00;;;;;;5103505;28;20886;-54
2023/12/04 09:28:31;;;;;;;4.13;1.60;;;-1.30;15.30;;;;;;5113428;28;20427;-52
2023/12/04 09:30:58;;;;;;;5.07;1.80;;;-1.30;99.90;;;;;;5111200;28;20439;-49
2023/12/04 09:33:26;;;;;;;4.30;1.83;;;-1.30;1.00;;;;;;5111924;28;20439;-52
2023/12/04 09:35:55;;;;;;;5.70;2.22;;;-1.10;1.00;;;;;;5099920;28;20428;-53
2023/12/04 09:38:22;;;;;;;4.10;1.60;;;-1.00;1.00;;;;;;5115080;28;20420;-53
2023/12/04 09:40:50;;;;;;;4.57;1.58;;;-1.00;99.90;;;;;;5115576;28;20438;-54
2023/12/04 09:43:18;;;;;;;4.03;1.50;;;-0.90;99.90;;;;;;5114817;28;20518;-52
2023/12/04 09:45:46;;;;;;;3.65;1.35;;;-0.80;99.90;;;;;;5115734;28;20420;-54
2023/12/04 09:48:13;;;;;;;4.45;1.30;;;-0.90;1.00;;;;;;5115287;28;21093;-51
2023/12/04 09:50:40;;;;;;;5.15;1.60;;;-1.00;99.90;;;;;;5115515;28;20815;-52
2023/12/04 09:53:13;;;;;;;2.70;1.40;;;-1.00;1.00;;;;;;5114584;28;20415;-52
2023/12/04 09:55:41;;;;;;;3.15;1.42;;;-1.00;1.00;;;;;;5114298;28;20439;-53
2023/12/04 09:58:09;;;;;;;2.60;1.20;;;-0.80;23.20;;;;;;5113203;28;20476;-52
2023/12/04 10:00:37;;;;;;;4.60;1.40;;;-0.80;1.00;;;;;;5114342;28;20428;-56
2023/12/04 10:03:04;;;;;;;3.30;1.60;;;-0.80;1.00;;;;;;5113444;28;20424;-52
2023/12/04 10:05:31;;;;;;;4.18;1.60;;;-0.80;1.00;;;;;;5102277;27;20430;-55
2023/12/04 10:07:58;;;;;;;3.60;1.50;;;-0.70;1.00;;;;;;5125970;27;20439;-54
2023/12/04 10:10:27;;;;;;;3.00;1.60;;;-0.60;1.00;;;;;;5110377;27;20439;-56
2023/12/04 10:12:55;;;;;;;4.28;1.50;;;-0.70;1.00;;;;;;5110601;27;20444;-50
2023/12/04 10:15:22;;;;;;;3.80;1.50;;;-0.70;1.00;;;;;;5114528;27;20920;-53
2023/12/04 10:17:49;;;;;;;2.60;1.23;;;-0.70;1.00;;;;;;5124305;27;20867;-52
2023/12/04 10:20:18;;;;;;;4.03;1.77;;;-0.70;1.00;;;;;;5109157;27;20436;-51
2023/12/04 10:22:55;;;;;;;2.73;1.30;;;-0.60;99.90;;;;;;5111914;27;20733;-51
2023/12/04 10:25:23;;;;;;;3.55;1.20;;;-0.40;1.00;;;;;;5111940;28;20416;-50
2023/12/04 10:27:53;;;;;;;2.90;1.60;;;-0.40;1.00;;;;;;5114118;27;20438;-54
2023/12/04 10:30:25;;;;;;;3.35;1.30;;;-0.30;1.00;;;;;;5108980;28;20523;-50
2023/12/04 10:32:56;;;;;;;3.40;1.50;;;-0.30;1.00;;;;;;5110256;27;20426;-53
2023/12/04 10:35:23;;;;;;;3.25;1.30;;;-0.20;1.00;;;;;;5119094;27;20444;-52
2023/12/04 10:37:54;;;;;;;4.60;1.70;;;-0.10;1.00;;;;;;5113008;28;20904;-51
2023/12/04 10:40:26;;;;;;;3.38;1.70;;;0.00;1.00;;;;;;5116613;27;21121;-54
2023/12/04 10:43:11;;;;;;;3.60;1.40;;;0.00;99.90;;;;;;5121707;27;20435;-53
2023/12/04 10:45:39;;;;;;;4.38;1.50;;;0.10;1.00;;;;;;5117219;27;20435;-49
2023/12/04 10:48:06;;;;;;;3.80;1.60;;;0.10;1.00;;;;;;5121471;27;20445;-52
2023/12/04 10:50:34;;;;;;;2.67;1.30;;;0.10;1.00;;;;;;5117066;27;20432;-51
2023/12/04 10:53:03;;;;;;;2.90;1.33;;;0.10;1.00;;;;;;5109851;28;20864;-48
2023/12/04 10:55:31;;;;;;;2.97;1.50;;;0.10;1.00;;;;;;5123054;27;20462;-50
2023/12/04 10:58:01;;;;;;;4.68;1.40;;;0.20;1.00;;;;;;5123588;27;20502;-52
2023/12/04 11:00:30;;;;;;;3.30;1.60;;;0.20;1.00;;;;;;5114246;27;20435;-53
2023/12/04 11:03:03;;;;;;;3.50;1.40;;;0.30;1.00;;;;;;5114485;27;20867;-54
2023/12/04 11:05:30;;;;;;;4.45;1.40;;;0.30;1.00;;;;;;5111937;27;20431;-51
2023/12/04 11:07:59;;;;;;;3.45;1.40;;;0.30;1.00;;;;;;5122626;27;20485;-50
2023/12/04 11:10:28;;;;;;;3.90;1.77;;;0.50;1.00;;;;;;5112561;27;20435;-55
2023/12/04 11:13:03;;;;;;;3.38;1.40;;;0.70;1.00;;;;;;5096523;28;20423;-48
2023/12/04 11:15:32;;;;;;;4.47;1.35;;;0.90;26.10;;;;;;5111350;27;20797;-52
2023/12/04 11:18:01;;;;;;;4.00;1.30;;;0.90;99.90;;;;;;5109698;27;20443;-54
2023/12/04 11:20:30;;;;;;;4.72;1.73;;;0.90;1.00;;;;;;5109338;28;20423;-51
2023/12/04 11:22:58;;;;;;;4.03;1.60;;;0.90;1.00;;;;;;5113015;27;20856;-49
2023/12/04 11:25:26;;;;;;;7.10;2.00;;;0.80;1.00;;;;;;5095611;28;20724;-52
2023/12/04 11:27:55;;;;;;;3.65;1.70;;;0.80;92.80;;;;;;5110192;28;20435;-53
2023/12/04 11:30:23;;;;;;;4.25;1.60;;;0.80;1.00;;;;;;5109750;27;20439;-53
2023/12/04 11:32:53;;;;;;;3.60;1.40;;;0.90;77.10;;;;;;5118046;27;20436;-53
2023/12/04 11:35:22;;;;;;;4.00;1.30;;;0.90;1.00;;;;;;5112045;27;20495;-51
2023/12/04 11:37:49;;;;;;;3.15;1.27;;;1.00;99.90;;;;;;5112012;27;20728;-52
2023/12/04 11:40:17;;;;;;;5.53;2.58;;;1.10;1.00;;;;;;5109309;28;20580;-52
2023/12/04 11:42:44;;;;;;;3.65;2.00;;;1.10;1.00;;;;;;5110542;27;20786;-55
2023/12/04 11:45:19;;;;;;;4.10;1.70;;;1.10;1.00;;;;;;5113773;27;20433;-50
2023/12/04 11:47:56;;;;;;;3.10;1.50;;;1.00;1.00;;;;;;5129340;27;20434;-52
2023/12/04 11:50:25;;;;;;;5.00;1.73;;;1.00;99.90;;;;;;5134195;27;20478;-50
2023/12/04 11:52:53;;;;;;;3.20;1.77;;;1.10;99.90;;;;;;5131692;27;20410;-53
2023/12/04 11:55:22;;;;;;;3.97;1.30;;;1.20;1.00;;;;;;5133171;27;20499;-50
2023/12/04 11:57:51;;;;;;;4.07;1.67;;;1.20;1.00;;;;;;5128139;27;20472;-50
2023/12/04 12:00:24;;;;;;;3.97;1.70;;;1.20;1.00;;;;;;5110243;28;20477;-48
2023/12/04 12:03:06;;;;;;;3.90;1.90;;;1.20;1.00;;;;;;5109990;28;20488;-52
2023/12/04 12:05:35;;;;;;;4.70;1.60;;;1.30;1.00;;;;;;5103486;28;20837;-53
2023/12/04 12:08:05;;;;;;;2.60;1.35;;;1.30;1.00;;;;;;5111985;28;20416;-48
2023/12/04 12:10:34;;;;;;;3.77;1.50;;;1.30;99.90;;;;;;5118041;27;20424;-49
2023/12/04 12:13:01;;;;;;;4.90;2.00;;;1.40;99.90;;;;;;5109806;28;20518;-52
2023/12/04 12:15:29;;;;;;;5.00;3.00;;;1.40;99.90;;;;;;5110639;28;20867;-49
2023/12/04 12:17:56;;;;;;;7.93;3.63;;;1.40;1.00;;;;;;5112359;28;20432;-51
2023/12/04 12:20:24;;;;;;;5.40;3.17;;;1.30;1.00;;;;;;5110424;28;20500;-50
2023/12/04 12:22:52;;;;;;;6.18;3.10;;;1.20;1.00;;;;;;5109337;28;20413;-52
2023/12/04 12:25:20;;;;;;;7.28;3.45;;;1.20;99.90;;;;;;5108064;28;20454;-52
2023/12/04 12:27:47;;;;;;;7.68;2.95;;;1.30;99.90;;;;;;5109221;28;20771;-52
2023/12/04 12:30:14;;;;;;;6.90;3.03;;;1.50;1.00;;;;;;5111662;28;20447;-50
2023/12/04 12:32:41;;;;;;;5.00;2.97;;;1.80;99.90;;;;;;5110465;28;20831;-53
2023/12/04 12:35:09;;;;;;;6.65;2.88;;;1.90;99.90;;;;;;5111310;28;20890;-49
2023/12/04 12:37:39;;;;;;;5.78;3.53;;;1.90;99.90;;;;;;5111518;28;20540;-51
2023/12/04 12:40:09;;;;;;;7.63;3.20;;;1.90;1.00;;;;;;5111139;28;20882;-52
2023/12/04 12:42:36;;;;;;;7.70;3.40;;;2.00;99.90;;;;;;5111902;28;20441;-50
2023/12/04 12:45:04;;;;;;;6.53;2.83;;;2.00;99.90;;;;;;5111155;28;20431;-48
2023/12/04 12:47:32;;;;;;;7.70;3.03;;;1.90;8.70;;;;;;5110114;28;20416;-48
2023/12/04 12:50:02;;;;;;;8.68;3.47;;;1.80;1.00;;;;;;5110247;28;20503;-54
2023/12/04 12:52:30;;;;;;;7.00;3.38;;;1.70;99.90;;;;;;5110666;28;20751;-49
2023/12/04 12:54:58;;;;;;;7.18;4.53;;;1.50;99.90;;;;;;5107607;28;20435;-51
2023/12/04 12:57:26;;;;;;;5.55;3.55;;;1.30;1.00;;;;;;5108821;28;20881;-48
2023/12/04 12:59:54;;;;;;;8.02;4.75;;;1.40;99.90;;;;;;5110648;28;21052;-51